sensor_id;sensor_type;location;lat;lon;timestamp;pressure;altitude;pressure_sealevel;temperature;humidity
74675;BME280;63200;48.810;12.352;2022-11-15T00:00:03;97513.25;;;0.76;78.38
74675;BME280;63200;48.810;12.352;2022-11-15T00:02:28;97517.50;;;0.84;78.55
74675;BME280;63200;48.810;12.352;2022-11-15T00:04:54;97487.72;;;0.80;78.62
74675;BME280;63200;48.810;12.352;2022-11-15T00:07:19;97499.47;;;0.98;78.67
74675;BME280;63200;48.810;12.352;2022-11-15T00:09:44;97485.66;;;1.01;78.40
74675;BME280;63200;48.810;12.352;2022-11-15T00:12:10;97503.19;;;1.15;78.51
74675;BME280;63200;48.810;12.352;2022-11-15T00:14:35;97509.25;;;1.23;77.92
74675;BME280;63200;48.810;12.352;2022-11-15T00:17:00;97486.59;;;1.07;78.66
74675;BME280;63200;48.810;12.352;2022-11-15T00:19:26;97466.94;;;0.82;78.35
74675;BME280;63200;48.810;12.352;2022-11-15T00:21:51;97500.13;;;0.93;78.33
74675;BME280;63200;48.810;12.352;2022-11-15T00:24:16;97467.06;;;0.69;78.34
74675;BME280;63200;48.810;12.352;2022-11-15T00:26:42;97489.03;;;0.71;78.17
74675;BME280;63200;48.810;12.352;2022-11-15T00:29:07;97494.13;;;0.79;78.39
74675;BME280;63200;48.810;12.352;2022-11-15T00:31:32;97510.00;;;0.93;78.98
74675;BME280;63200;48.810;12.352;2022-11-15T00:33:57;97476.59;;;0.83;78.74
74675;BME280;63200;48.810;12.352;2022-11-15T00:36:23;97495.00;;;0.92;78.88
74675;BME280;63200;48.810;12.352;2022-11-15T00:38:48;97507.53;;;0.91;78.47
74675;BME280;63200;48.810;12.352;2022-11-15T00:41:13;97512.06;;;0.72;78.27
74675;BME280;63200;48.810;12.352;2022-11-15T00:43:39;97482.97;;;0.39;77.78
74675;BME280;63200;48.810;12.352;2022-11-15T00:46:05;97499.97;;;0.44;78.21
74675;BME280;63200;48.810;12.352;2022-11-15T00:48:31;97481.63;;;0.29;79.03
74675;BME280;63200;48.810;12.352;2022-11-15T00:50:57;97501.00;;;0.43;78.79
74675;BME280;63200;48.810;12.352;2022-11-15T00:53:22;97498.31;;;0.43;79.46
74675;BME280;63200;48.810;12.352;2022-11-15T00:55:48;97496.44;;;0.51;78.94
74675;BME280;63200;48.810;12.352;2022-11-15T00:58:13;97492.63;;;0.40;78.75
74675;BME280;63200;48.810;12.352;2022-11-15T01:00:38;97479.88;;;0.16;78.26
74675;BME280;63200;48.810;12.352;2022-11-15T01:03:04;97492.19;;;0.18;78.26
74675;BME280;63200;48.810;12.352;2022-11-15T01:05:29;97442.03;;;-0.06;78.07
74675;BME280;63200;48.810;12.352;2022-11-15T01:07:55;97474.91;;;0.20;78.45
74675;BME280;63200;48.810;12.352;2022-11-15T01:10:22;97475.09;;;0.25;78.46
74675;BME280;63200;48.810;12.352;2022-11-15T01:12:48;97467.66;;;0.27;78.40
74675;BME280;63200;48.810;12.352;2022-11-15T01:15:14;97469.63;;;0.39;78.38
74675;BME280;63200;48.810;12.352;2022-11-15T01:17:39;97477.34;;;0.47;78.21
74675;BME280;63200;48.810;12.352;2022-11-15T01:20:05;97470.16;;;0.47;78.35
74675;BME280;63200;48.810;12.352;2022-11-15T01:22:30;97466.88;;;0.45;78.51
74675;BME280;63200;48.810;12.352;2022-11-15T01:24:55;97442.53;;;0.35;78.69
74675;BME280;63200;48.810;12.352;2022-11-15T01:27:21;97452.34;;;0.41;78.70
74675;BME280;63200;48.810;12.352;2022-11-15T01:29:46;97463.94;;;0.54;78.71
74675;BME280;63200;48.810;12.352;2022-11-15T01:32:12;97455.69;;;0.55;78.54
74675;BME280;63200;48.810;12.352;2022-11-15T01:34:37;97464.91;;;0.59;78.45
74675;BME280;63200;48.810;12.352;2022-11-15T01:37:02;97432.16;;;0.45;78.32
74675;BME280;63200;48.810;12.352;2022-11-15T01:39:28;97424.22;;;0.39;78.57
74675;BME280;63200;48.810;12.352;2022-11-15T01:41:53;97449.53;;;0.55;78.06
74675;BME280;63200;48.810;12.352;2022-11-15T01:47:02;97443.88;;;0.44;77.95
74675;BME280;63200;48.810;12.352;2022-11-15T01:49:30;97414.31;;;0.21;78.36
74675;BME280;63200;48.810;12.352;2022-11-15T01:51:58;97436.75;;;0.38;78.51
74675;BME280;63200;48.810;12.352;2022-11-15T01:54:24;97436.16;;;0.36;78.33
74675;BME280;63200;48.810;12.352;2022-11-15T01:56:55;97438.00;;;0.36;78.35
74675;BME280;63200;48.810;12.352;2022-11-15T01:59:21;97429.81;;;0.30;77.92
74675;BME280;63200;48.810;12.352;2022-11-15T02:01:47;97412.16;;;0.11;78.14
74675;BME280;63200;48.810;12.352;2022-11-15T02:04:15;97359.53;;;-0.32;78.03
74675;BME280;63200;48.810;12.352;2022-11-15T02:06:43;97440.50;;;0.05;78.06
74675;BME280;63200;48.810;12.352;2022-11-15T02:09:09;97439.59;;;-0.07;78.16
74675;BME280;63200;48.810;12.352;2022-11-15T02:11:36;97432.44;;;-0.13;78.57
74675;BME280;63200;48.810;12.352;2022-11-15T02:14:02;97414.09;;;-0.28;78.52
74675;BME280;63200;48.810;12.352;2022-11-15T02:16:37;97432.25;;;-0.12;78.02
74675;BME280;63200;48.810;12.352;2022-11-15T02:19:28;97429.59;;;-0.19;77.43
74675;BME280;63200;48.810;12.352;2022-11-15T02:22:14;97428.41;;;-0.23;78.00
74675;BME280;63200;48.810;12.352;2022-11-15T02:32:54;97408.47;;;0.05;78.58
74675;BME280;63200;48.810;12.352;2022-11-15T02:35:30;97400.41;;;0.12;78.62
74675;BME280;63200;48.810;12.352;2022-11-15T02:38:16;97396.50;;;0.14;78.52
74675;BME280;63200;48.810;12.352;2022-11-15T02:40:52;97390.63;;;0.06;78.20
74675;BME280;63200;48.810;12.352;2022-11-15T02:43:26;97398.97;;;0.16;78.28
74675;BME280;63200;48.810;12.352;2022-11-15T02:48:41;97321.41;;;-0.40;77.80
74675;BME280;63200;48.810;12.352;2022-11-15T02:51:08;97366.47;;;-0.25;77.94
74675;BME280;63200;48.810;12.352;2022-11-15T02:53:33;97367.94;;;-0.29;78.36
74675;BME280;63200;48.810;12.352;2022-11-15T02:55:59;97361.53;;;-0.28;78.07
74675;BME280;63200;48.810;12.352;2022-11-15T02:58:47;97377.31;;;-0.20;78.28
74675;BME280;63200;48.810;12.352;2022-11-15T03:01:38;97375.00;;;-0.16;78.74
74675;BME280;63200;48.810;12.352;2022-11-15T03:04:23;97379.91;;;-0.13;78.72
74675;BME280;63200;48.810;12.352;2022-11-15T03:07:10;97369.25;;;-0.13;78.35
74675;BME280;63200;48.810;12.352;2022-11-15T03:09:52;97367.97;;;-0.10;78.05
74675;BME280;63200;48.810;12.352;2022-11-15T03:15:10;97367.81;;;-0.15;78.07
74675;BME280;63200;48.810;12.352;2022-11-15T03:17:52;97358.88;;;-0.28;77.98
74675;BME280;63200;48.810;12.352;2022-11-15T03:20:20;97347.72;;;-0.43;77.70
74675;BME280;63200;48.810;12.352;2022-11-15T03:22:47;97371.06;;;-0.39;78.08
74675;BME280;63200;48.810;12.352;2022-11-15T03:25:17;97354.19;;;-0.58;78.30
74675;BME280;63200;48.810;12.352;2022-11-15T03:27:48;97377.91;;;-0.49;78.39
74675;BME280;63200;48.810;12.352;2022-11-15T03:30:15;97374.22;;;-0.48;78.89
74675;BME280;63200;48.810;12.352;2022-11-15T03:32:47;97359.19;;;-0.43;78.96
74675;BME280;63200;48.810;12.352;2022-11-15T03:35:24;97362.25;;;-0.39;78.76
74675;BME280;63200;48.810;12.352;2022-11-15T03:37:57;97363.50;;;-0.42;78.79
74675;BME280;63200;48.810;12.352;2022-11-15T03:40:45;97358.66;;;-0.52;78.67
74675;BME280;63200;48.810;12.352;2022-11-15T03:43:22;97353.91;;;-0.49;78.96
74675;BME280;63200;48.810;12.352;2022-11-15T03:46:03;97343.69;;;-0.53;78.75
74675;BME280;63200;48.810;12.352;2022-11-15T03:48:35;97346.78;;;-0.56;78.85
74675;BME280;63200;48.810;12.352;2022-11-15T03:51:03;97359.25;;;-0.49;78.80
74675;BME280;63200;48.810;12.352;2022-11-15T03:53:29;97353.16;;;-0.57;78.76
74675;BME280;63200;48.810;12.352;2022-11-15T03:55:55;97365.78;;;-0.45;78.61
74675;BME280;63200;48.810;12.352;2022-11-15T03:58:21;97361.69;;;-0.48;78.69
74675;BME280;63200;48.810;12.352;2022-11-15T04:00:46;97332.69;;;-0.63;79.07
74675;BME280;63200;48.810;12.352;2022-11-15T04:03:11;97355.16;;;-0.52;78.54
74675;BME280;63200;48.810;12.352;2022-11-15T04:05:37;97357.44;;;-0.56;78.51
74675;BME280;63200;48.810;12.352;2022-11-15T04:08:02;97350.28;;;-0.55;78.81
74675;BME280;63200;48.810;12.352;2022-11-15T04:10:27;97361.53;;;-0.53;78.95
74675;BME280;63200;48.810;12.352;2022-11-15T04:12:53;97357.84;;;-0.52;79.08
74675;BME280;63200;48.810;12.352;2022-11-15T04:15:21;97324.06;;;-0.65;78.92
74675;BME280;63200;48.810;12.352;2022-11-15T04:17:48;97347.94;;;-0.45;79.46
74675;BME280;63200;48.810;12.352;2022-11-15T04:23:06;97346.03;;;-0.38;79.21
74675;BME280;63200;48.810;12.352;2022-11-15T04:25:51;97346.41;;;-0.34;79.31
74675;BME280;63200;48.810;12.352;2022-11-15T04:28:18;97338.25;;;-0.39;78.85
74675;BME280;63200;48.810;12.352;2022-11-15T04:30:43;97328.63;;;-0.40;78.90
74675;BME280;63200;48.810;12.352;2022-11-15T04:33:08;97333.72;;;-0.39;78.97
74675;BME280;63200;48.810;12.352;2022-11-15T04:35:34;97336.63;;;-0.40;78.77
74675;BME280;63200;48.810;12.352;2022-11-15T04:38:01;97342.38;;;-0.43;78.48
74675;BME280;63200;48.810;12.352;2022-11-15T04:40:26;97341.38;;;-0.42;78.65
74675;BME280;63200;48.810;12.352;2022-11-15T04:42:51;97303.34;;;-0.63;78.66
74675;BME280;63200;48.810;12.352;2022-11-15T04:45:17;97334.22;;;-0.48;78.77
74675;BME280;63200;48.810;12.352;2022-11-15T04:47:44;97279.06;;;-0.80;78.56
74675;BME280;63200;48.810;12.352;2022-11-15T04:50:10;97305.56;;;-0.60;78.68
74675;BME280;63200;48.810;12.352;2022-11-15T04:52:59;97332.75;;;-0.44;78.32
74675;BME280;63200;48.810;12.352;2022-11-15T04:55:23;97326.84;;;-0.53;78.58
74675;BME280;63200;48.810;12.352;2022-11-15T04:57:57;97323.03;;;-0.64;78.44
74675;BME280;63200;48.810;12.352;2022-11-15T05:00:23;97331.94;;;-0.70;78.37
74675;BME280;63200;48.810;12.352;2022-11-15T05:02:48;97294.34;;;-0.94;78.46
74675;BME280;63200;48.810;12.352;2022-11-15T05:05:34;97330.75;;;-0.81;78.58
74675;BME280;63200;48.810;12.352;2022-11-15T05:07:59;97330.59;;;-0.93;79.00
74675;BME280;63200;48.810;12.352;2022-11-15T05:10:25;97323.06;;;-0.96;79.53
74675;BME280;63200;48.810;12.352;2022-11-15T05:12:50;97324.44;;;-0.87;79.61
74675;BME280;63200;48.810;12.352;2022-11-15T05:15:15;97321.72;;;-0.80;79.18
74675;BME280;63200;48.810;12.352;2022-11-15T05:17:41;97292.72;;;-0.95;79.04
74675;BME280;63200;48.810;12.352;2022-11-15T05:20:06;97322.06;;;-0.70;78.99
74675;BME280;63200;48.810;12.352;2022-11-15T05:22:32;97289.34;;;-0.84;78.68
74675;BME280;63200;48.810;12.352;2022-11-15T05:24:57;97312.59;;;-0.65;78.47
74675;BME280;63200;48.810;12.352;2022-11-15T05:27:22;97315.25;;;-0.65;78.68
74675;BME280;63200;48.810;12.352;2022-11-15T05:29:48;97318.91;;;-0.60;78.57
74675;BME280;63200;48.810;12.352;2022-11-15T05:32:13;97308.84;;;-0.58;78.53
74675;BME280;63200;48.810;12.352;2022-11-15T05:34:39;97312.16;;;-0.62;78.36
74675;BME280;63200;48.810;12.352;2022-11-15T05:37:04;97298.88;;;-0.69;78.34
74675;BME280;63200;48.810;12.352;2022-11-15T05:39:30;97296.50;;;-0.77;78.46
74675;BME280;63200;48.810;12.352;2022-11-15T05:42:07;97303.88;;;-0.79;78.19
74675;BME280;63200;48.810;12.352;2022-11-15T05:44:36;97306.00;;;-0.88;78.47
74675;BME280;63200;48.810;12.352;2022-11-15T05:47:02;97290.28;;;-0.96;78.39
74675;BME280;63200;48.810;12.352;2022-11-15T05:49:31;97264.69;;;-1.04;78.59
74675;BME280;63200;48.810;12.352;2022-11-15T05:51:59;97270.41;;;-1.01;78.19
74675;BME280;63200;48.810;12.352;2022-11-15T05:54:25;97281.03;;;-0.94;78.61
74675;BME280;63200;48.810;12.352;2022-11-15T05:56:51;97292.63;;;-0.81;78.33
74675;BME280;63200;48.810;12.352;2022-11-15T05:59:18;97289.09;;;-0.75;78.35
74675;BME280;63200;48.810;12.352;2022-11-15T06:01:44;97291.31;;;-0.72;78.48
74675;BME280;63200;48.810;12.352;2022-11-15T06:04:09;97289.59;;;-0.92;79.06
74675;BME280;63200;48.810;12.352;2022-11-15T06:06:34;97286.09;;;-0.86;78.92
74675;BME280;63200;48.810;12.352;2022-11-15T06:09:00;97253.00;;;-1.03;79.08
74675;BME280;63200;48.810;12.352;2022-11-15T06:11:25;97287.72;;;-0.85;79.30
74675;BME280;63200;48.810;12.352;2022-11-15T06:13:50;97288.75;;;-0.86;79.31
74675;BME280;63200;48.810;12.352;2022-11-15T06:16:16;97286.38;;;-0.94;79.74
74675;BME280;63200;48.810;12.352;2022-11-15T06:18:41;97284.28;;;-0.92;80.05
74675;BME280;63200;48.810;12.352;2022-11-15T06:21:07;97281.78;;;-0.87;80.27
74675;BME280;63200;48.810;12.352;2022-11-15T06:23:33;97278.38;;;-0.94;80.24
74675;BME280;63200;48.810;12.352;2022-11-15T06:25:59;97293.56;;;-1.01;80.33
74675;BME280;63200;48.810;12.352;2022-11-15T06:28:31;97289.06;;;-1.01;80.20
74675;BME280;63200;48.810;12.352;2022-11-15T06:31:05;97283.75;;;-1.07;79.71
74675;BME280;63200;48.810;12.352;2022-11-15T06:33:31;97298.81;;;-0.88;80.52
74675;BME280;63200;48.810;12.352;2022-11-15T06:36:05;97288.00;;;-0.68;79.58
74675;BME280;63200;48.810;12.352;2022-11-15T06:38:30;97293.84;;;-0.52;78.84
74675;BME280;63200;48.810;12.352;2022-11-15T06:41:02;97283.28;;;-0.40;78.66
74675;BME280;63200;48.810;12.352;2022-11-15T06:43:27;97290.81;;;-0.12;78.19
74675;BME280;63200;48.810;12.352;2022-11-15T06:45:53;97282.16;;;0.30;77.58
74675;BME280;63200;48.810;12.352;2022-11-15T06:48:18;97291.44;;;0.76;76.28
74675;BME280;63200;48.810;12.352;2022-11-15T06:50:50;97288.34;;;1.22;75.32
74675;BME280;63200;48.810;12.352;2022-11-15T06:53:15;97290.16;;;1.63;74.02
74675;BME280;63200;48.810;12.352;2022-11-15T06:55:41;97280.63;;;2.03;72.23
74675;BME280;63200;48.810;12.352;2022-11-15T06:58:06;97279.28;;;2.82;70.59
74675;BME280;63200;48.810;12.352;2022-11-15T07:00:31;97288.66;;;3.59;67.21
74675;BME280;63200;48.810;12.352;2022-11-15T07:02:59;97279.38;;;4.23;64.61
74675;BME280;63200;48.810;12.352;2022-11-15T07:05:25;97281.69;;;4.14;62.48
74675;BME280;63200;48.810;12.352;2022-11-15T07:07:54;97278.94;;;3.92;62.63
74675;BME280;63200;48.810;12.352;2022-11-15T07:10:20;97284.66;;;3.79;63.31
74675;BME280;63200;48.810;12.352;2022-11-15T07:12:48;97285.03;;;4.05;62.00
74675;BME280;63200;48.810;12.352;2022-11-15T07:15:14;97280.63;;;4.15;61.91
74675;BME280;63200;48.810;12.352;2022-11-15T07:17:40;97289.88;;;4.25;61.07
74675;BME280;63200;48.810;12.352;2022-11-15T07:20:05;97286.53;;;4.57;61.56
74675;BME280;63200;48.810;12.352;2022-11-15T07:22:31;97294.53;;;4.12;62.74
74675;BME280;63200;48.810;12.352;2022-11-15T07:24:56;97291.06;;;3.95;63.63
74675;BME280;63200;48.810;12.352;2022-11-15T07:27:21;97285.50;;;3.45;64.71
74675;BME280;63200;48.810;12.352;2022-11-15T07:29:47;97272.28;;;3.44;65.47
74675;BME280;63200;48.810;12.352;2022-11-15T07:32:12;97283.53;;;3.75;65.24
74675;BME280;63200;48.810;12.352;2022-11-15T07:34:37;97276.13;;;3.65;65.22
74675;BME280;63200;48.810;12.352;2022-11-15T07:37:03;97278.84;;;4.04;65.16
74675;BME280;63200;48.810;12.352;2022-11-15T07:39:28;97283.31;;;5.04;61.23
74675;BME280;63200;48.810;12.352;2022-11-15T07:41:53;97265.53;;;5.03;60.51
74675;BME280;63200;48.810;12.352;2022-11-15T07:44:38;97278.28;;;4.91;61.76
74675;BME280;63200;48.810;12.352;2022-11-15T07:47:04;97276.19;;;4.71;62.96
74675;BME280;63200;48.810;12.352;2022-11-15T07:49:29;97273.28;;;4.50;64.01
74675;BME280;63200;48.810;12.352;2022-11-15T07:51:54;97269.59;;;4.34;65.28
74675;BME280;63200;48.810;12.352;2022-11-15T07:54:20;97279.38;;;4.45;65.25
74675;BME280;63200;48.810;12.352;2022-11-15T07:56:45;97253.75;;;4.60;64.17
74675;BME280;63200;48.810;12.352;2022-11-15T07:59:10;97277.94;;;5.09;63.54
74675;BME280;63200;48.810;12.352;2022-11-15T08:01:36;97278.16;;;5.62;62.33
74675;BME280;63200;48.810;12.352;2022-11-15T08:04:01;97276.50;;;6.31;60.45
74675;BME280;63200;48.810;12.352;2022-11-15T08:06:26;97283.84;;;5.66;61.67
74675;BME280;63200;48.810;12.352;2022-11-15T08:08:51;97282.22;;;5.32;63.01
74675;BME280;63200;48.810;12.352;2022-11-15T08:11:17;97267.19;;;5.09;63.84
74675;BME280;63200;48.810;12.352;2022-11-15T08:13:42;97283.72;;;4.96;64.33
74675;BME280;63200;48.810;12.352;2022-11-15T08:16:08;97286.34;;;4.86;65.33
74675;BME280;63200;48.810;12.352;2022-11-15T08:18:34;97279.84;;;4.59;66.53
74675;BME280;63200;48.810;12.352;2022-11-15T08:21:00;97250.34;;;4.70;66.46
74675;BME280;63200;48.810;12.352;2022-11-15T08:23:26;97271.91;;;4.97;66.57
74675;BME280;63200;48.810;12.352;2022-11-15T08:25:52;97278.75;;;6.02;64.02
74675;BME280;63200;48.810;12.352;2022-11-15T08:28:17;97276.81;;;6.45;62.89
74675;BME280;63200;48.810;12.352;2022-11-15T08:30:43;97270.53;;;6.29;63.47
74675;BME280;63200;48.810;12.352;2022-11-15T08:33:12;97265.47;;;6.38;63.75
74675;BME280;63200;48.810;12.352;2022-11-15T08:35:38;97259.44;;;6.79;62.58
74675;BME280;63200;48.810;12.352;2022-11-15T08:38:04;97252.78;;;7.33;60.18
74675;BME280;63200;48.810;12.352;2022-11-15T08:40:29;97254.94;;;7.62;59.83
74675;BME280;63200;48.810;12.352;2022-11-15T08:42:54;97246.13;;;8.42;58.45
74675;BME280;63200;48.810;12.352;2022-11-15T08:45:20;97253.38;;;9.57;55.05
74675;BME280;63200;48.810;12.352;2022-11-15T08:47:45;97248.00;;;9.81;54.00
74675;BME280;63200;48.810;12.352;2022-11-15T08:50:10;97230.13;;;10.34;52.63
74675;BME280;63200;48.810;12.352;2022-11-15T08:52:36;97229.16;;;10.92;51.85
74675;BME280;63200;48.810;12.352;2022-11-15T08:55:01;97231.56;;;11.51;50.88
74675;BME280;63200;48.810;12.352;2022-11-15T08:57:30;97229.00;;;11.22;51.39
74675;BME280;63200;48.810;12.352;2022-11-15T08:59:56;97219.09;;;10.25;53.27
74675;BME280;63200;48.810;12.352;2022-11-15T09:02:21;97219.94;;;9.32;56.18
74675;BME280;63200;48.810;12.352;2022-11-15T09:04:47;97208.81;;;8.44;59.38
74675;BME280;63200;48.810;12.352;2022-11-15T09:07:13;97197.88;;;7.99;61.69
74675;BME280;63200;48.810;12.352;2022-11-15T09:09:39;97212.13;;;8.31;61.97
74675;BME280;63200;48.810;12.352;2022-11-15T09:12:05;97211.84;;;8.88;61.19
74675;BME280;63200;48.810;12.352;2022-11-15T09:14:31;97216.63;;;9.06;60.11
74675;BME280;63200;48.810;12.352;2022-11-15T09:16:57;97212.81;;;9.07;60.66
74675;BME280;63200;48.810;12.352;2022-11-15T09:19:23;97210.75;;;8.94;61.13
74675;BME280;63200;48.810;12.352;2022-11-15T09:21:48;97200.38;;;9.06;61.00
74675;BME280;63200;48.810;12.352;2022-11-15T09:24:14;97205.75;;;9.80;59.79
74675;BME280;63200;48.810;12.352;2022-11-15T09:26:40;97193.91;;;10.20;58.49
74675;BME280;63200;48.810;12.352;2022-11-15T09:29:05;97204.28;;;9.59;60.23
74675;BME280;63200;48.810;12.352;2022-11-15T09:31:31;97190.25;;;9.22;61.63
74675;BME280;63200;48.810;12.352;2022-11-15T09:33:56;97192.63;;;9.29;61.60
74675;BME280;63200;48.810;12.352;2022-11-15T09:36:21;97187.97;;;9.34;61.92
74675;BME280;63200;48.810;12.352;2022-11-15T09:38:47;97170.78;;;9.49;62.25
74675;BME280;63200;48.810;12.352;2022-11-15T09:46:26;97158.66;;;11.20;57.73
74675;BME280;63200;48.810;12.352;2022-11-15T09:48:57;97156.84;;;11.48;57.59
74675;BME280;63200;48.810;12.352;2022-11-15T09:51:33;97155.72;;;11.49;58.41
74675;BME280;63200;48.810;12.352;2022-11-15T09:56:36;97150.34;;;12.61;55.96
74675;BME280;63200;48.810;12.352;2022-11-15T10:04:26;97147.47;;;12.29;57.21
74675;BME280;63200;48.810;12.352;2022-11-15T10:07:06;97147.25;;;12.26;57.83
74675;BME280;63200;48.810;12.352;2022-11-15T10:09:39;97146.59;;;13.07;57.19
74675;BME280;63200;48.810;12.352;2022-11-15T10:12:08;97141.66;;;13.95;54.22
74675;BME280;63200;48.810;12.352;2022-11-15T10:14:35;97123.88;;;14.64;52.52
74675;BME280;63200;48.810;12.352;2022-11-15T10:20:13;97129.03;;;15.18;51.12
74675;BME280;63200;48.810;12.352;2022-11-15T10:22:45;97105.38;;;15.22;50.78
74675;BME280;63200;48.810;12.352;2022-11-15T10:27:39;97115.03;;;15.93;48.60
74675;BME280;63200;48.810;12.352;2022-11-15T10:30:11;97105.81;;;16.07;47.90
74675;BME280;63200;48.810;12.352;2022-11-15T10:32:37;97089.09;;;15.52;48.82
74675;BME280;63200;48.810;12.352;2022-11-15T10:35:20;97050.38;;;15.24;49.47
74675;BME280;63200;48.810;12.352;2022-11-15T10:37:46;97084.91;;;15.46;49.36
74675;BME280;63200;48.810;12.352;2022-11-15T10:40:23;97077.22;;;15.39;49.87
74675;BME280;63200;48.810;12.352;2022-11-15T10:43:04;97079.66;;;15.32;49.74
74675;BME280;63200;48.810;12.352;2022-11-15T10:45:32;97066.81;;;15.06;50.04
74675;BME280;63200;48.810;12.352;2022-11-15T10:48:22;97067.78;;;15.10;50.56
74675;BME280;63200;48.810;12.352;2022-11-15T10:50:49;97040.25;;;15.07;49.94
74675;BME280;63200;48.810;12.352;2022-11-15T10:53:25;97056.00;;;15.19;49.30
74675;BME280;63200;48.810;12.352;2022-11-15T10:55:54;97060.88;;;14.95;50.17
74675;BME280;63200;48.810;12.352;2022-11-15T10:58:22;97061.66;;;14.43;51.67
74675;BME280;63200;48.810;12.352;2022-11-15T11:00:53;97014.13;;;13.29;53.81
74675;BME280;63200;48.810;12.352;2022-11-15T11:03:35;97058.75;;;12.88;55.74
74675;BME280;63200;48.810;12.352;2022-11-15T11:06:15;97037.72;;;12.79;55.71
74675;BME280;63200;48.810;12.352;2022-11-15T11:08:54;97024.56;;;12.36;57.57
74675;BME280;63200;48.810;12.352;2022-11-15T11:11:20;96984.06;;;12.21;58.04
74675;BME280;63200;48.810;12.352;2022-11-15T11:13:45;96977.56;;;11.94;58.43
74675;BME280;63200;48.810;12.352;2022-11-15T11:19:00;96989.91;;;12.28;58.18
74675;BME280;63200;48.810;12.352;2022-11-15T11:21:36;97005.75;;;12.48;57.86
74675;BME280;63200;48.810;12.352;2022-11-15T11:24:22;96997.47;;;12.17;58.67
74675;BME280;63200;48.810;12.352;2022-11-15T11:26:58;96998.63;;;12.16;58.52
74675;BME280;63200;48.810;12.352;2022-11-15T11:29:39;96980.44;;;12.25;59.15
74675;BME280;63200;48.810;12.352;2022-11-15T11:32:34;96982.06;;;12.49;59.02
74675;BME280;63200;48.810;12.352;2022-11-15T11:35:23;96972.03;;;12.36;58.33
74675;BME280;63200;48.810;12.352;2022-11-15T11:49:51;96946.81;;;13.07;56.96
74675;BME280;63200;48.810;12.352;2022-11-15T11:52:27;96959.53;;;13.52;55.87
74675;BME280;63200;48.810;12.352;2022-11-15T11:55:03;96950.44;;;13.74;55.16
74675;BME280;63200;48.810;12.352;2022-11-15T11:57:41;96942.91;;;13.79;54.48
74675;BME280;63200;48.810;12.352;2022-11-15T12:00:23;96937.66;;;13.92;54.50
74675;BME280;63200;48.810;12.352;2022-11-15T12:05:30;96927.84;;;14.35;52.71
74675;BME280;63200;48.810;12.352;2022-11-15T12:08:09;96928.47;;;14.49;52.34
74675;BME280;63200;48.810;12.352;2022-11-15T12:10:40;96916.06;;;14.60;51.83
74675;BME280;63200;48.810;12.352;2022-11-15T12:13:16;96926.22;;;14.69;52.17
74675;BME280;63200;48.810;12.352;2022-11-15T12:18:16;96906.19;;;15.03;50.71
74675;BME280;63200;48.810;12.352;2022-11-15T12:20:51;96906.66;;;15.05;50.81
74675;BME280;63200;48.810;12.352;2022-11-15T12:23:32;96929.88;;;15.29;51.05
74675;BME280;63200;48.810;12.352;2022-11-15T12:26:11;96921.38;;;15.52;50.40
74675;BME280;63200;48.810;12.352;2022-11-15T12:28:51;96919.50;;;15.43;50.55
74675;BME280;63200;48.810;12.352;2022-11-15T12:34:02;96893.72;;;15.53;49.63
74675;BME280;63200;48.810;12.352;2022-11-15T12:39:07;96906.47;;;15.70;49.36
74675;BME280;63200;48.810;12.352;2022-11-15T12:41:36;96906.13;;;15.51;49.79
74675;BME280;63200;48.810;12.352;2022-11-15T12:44:03;96908.94;;;15.63;49.53
74675;BME280;63200;48.810;12.352;2022-11-15T12:49:02;96895.41;;;15.37;49.67
74675;BME280;63200;48.810;12.352;2022-11-15T12:59:50;96890.16;;;15.53;49.15
74675;BME280;63200;48.810;12.352;2022-11-15T13:02:19;96877.44;;;15.57;49.48
74675;BME280;63200;48.810;12.352;2022-11-15T13:04:46;96866.63;;;15.60;48.96
74675;BME280;63200;48.810;12.352;2022-11-15T13:13:03;96855.13;;;15.46;49.82
74675;BME280;63200;48.810;12.352;2022-11-15T13:20:46;96860.84;;;15.02;50.86
74675;BME280;63200;48.810;12.352;2022-11-15T13:23:13;96858.88;;;14.55;52.57
74675;BME280;63200;48.810;12.352;2022-11-15T13:25:52;96849.69;;;14.04;53.68
74675;BME280;63200;48.810;12.352;2022-11-15T13:31:24;96864.59;;;13.54;54.85
74675;BME280;63200;48.810;12.352;2022-11-15T13:33:51;96860.25;;;13.53;55.38
74675;BME280;63200;48.810;12.352;2022-11-15T13:36:25;96854.75;;;13.35;55.47
74675;BME280;63200;48.810;12.352;2022-11-15T13:39:05;96842.38;;;13.29;55.18
74675;BME280;63200;48.810;12.352;2022-11-15T13:41:33;96845.44;;;13.36;55.47
74675;BME280;63200;48.810;12.352;2022-11-15T13:43:59;96852.13;;;13.21;56.33
74675;BME280;63200;48.810;12.352;2022-11-15T13:46:33;96852.19;;;12.90;56.92
74675;BME280;63200;48.810;12.352;2022-11-15T13:49:09;96851.22;;;12.77;57.45
74675;BME280;63200;48.810;12.352;2022-11-15T13:51:46;96842.00;;;12.64;57.76
74675;BME280;63200;48.810;12.352;2022-11-15T13:56:41;96833.31;;;12.53;58.19
74675;BME280;63200;48.810;12.352;2022-11-15T13:59:17;96847.53;;;12.50;58.03
74675;BME280;63200;48.810;12.352;2022-11-15T14:01:44;96819.91;;;12.34;58.40
74675;BME280;63200;48.810;12.352;2022-11-15T14:04:13;96842.50;;;12.35;58.69
74675;BME280;63200;48.810;12.352;2022-11-15T14:06:45;96815.00;;;12.13;58.69
74675;BME280;63200;48.810;12.352;2022-11-15T14:11:48;96827.13;;;12.07;60.89
74675;BME280;63200;48.810;12.352;2022-11-15T14:14:14;96818.72;;;11.95;62.46
74675;BME280;63200;48.810;12.352;2022-11-15T14:16:49;96819.00;;;11.93;63.17
74675;BME280;63200;48.810;12.352;2022-11-15T14:19:41;96813.63;;;11.79;64.08
74675;BME280;63200;48.810;12.352;2022-11-15T14:24:33;96813.66;;;11.65;65.51
74675;BME280;63200;48.810;12.352;2022-11-15T14:27:19;96809.84;;;11.66;65.41
74675;BME280;63200;48.810;12.352;2022-11-15T14:29:46;96791.31;;;11.46;66.17
74675;BME280;63200;48.810;12.352;2022-11-15T14:34:38;96792.41;;;11.45;66.44
74675;BME280;63200;48.810;12.352;2022-11-15T14:37:03;96776.53;;;11.38;66.46
74675;BME280;63200;48.810;12.352;2022-11-15T14:39:29;96794.91;;;11.41;66.89